createdAt,value
2018-10-11T00:00:01.765Z,101629.94
2018-10-11T00:00:14.075Z,101632.17
2018-10-11T00:00:25.824Z,101629.19
2018-10-11T00:00:37.570Z,101634.02
2018-10-11T00:00:49.327Z,101632.17
2018-10-11T00:01:01.079Z,101632.92
2018-10-11T00:01:12.817Z,101631.79
2018-10-11T00:01:24.575Z,101635.32
2018-10-11T00:01:36.352Z,101629.19
2018-10-11T00:01:48.151Z,101629.56
2018-10-11T00:01:59.906Z,101629.56
2018-10-11T00:02:11.670Z,101629.19
2018-10-11T00:02:23.432Z,101632.71
2018-10-11T00:02:35.183Z,101631.79
2018-10-11T00:02:46.940Z,101624.73
2018-10-11T00:02:58.686Z,101631.79
2018-10-11T00:03:10.448Z,101631.24
2018-10-11T00:03:22.458Z,101636.24
2018-10-11T00:03:34.212Z,101624.73
2018-10-11T00:03:45.970Z,101625.11
2018-10-11T00:03:57.726Z,101628.64
2018-10-11T00:04:09.494Z,101624.35
2018-10-11T00:04:21.237Z,101626.95
2018-10-11T00:04:33.016Z,101624.35
2018-10-11T00:04:44.777Z,101627.33
2018-10-11T00:04:56.751Z,101628.27
2018-10-11T00:05:08.516Z,101627.33
2018-10-11T00:05:20.276Z,101627.33
2018-10-11T00:05:32.036Z,101632.17
2018-10-11T00:05:43.792Z,101629.94
2018-10-11T00:05:55.585Z,101629.02
2018-10-11T00:06:07.348Z,101621.58
2018-10-11T00:06:19.107Z,101621.20
2018-10-11T00:06:30.862Z,101632.55
2018-10-11T00:06:42.603Z,101628.64
2018-10-11T00:06:54.380Z,101630.86
2018-10-11T00:07:06.155Z,101625.66
2018-10-11T00:07:17.912Z,101626.95
2018-10-11T00:07:29.668Z,101630.48
2018-10-11T00:07:41.424Z,101626.95
2018-10-11T00:07:53.196Z,101627.33
2018-10-11T00:08:04.956Z,101625.11
2018-10-11T00:08:16.714Z,101626.95
2018-10-11T00:08:28.474Z,101623.05
2018-10-11T00:08:40.239Z,101625.66
2018-10-11T00:08:51.995Z,101626.95
2018-10-11T00:09:04.683Z,101626.20
2018-10-11T00:09:16.435Z,101620.81
2018-10-11T00:09:28.194Z,101623.97
2018-10-11T00:09:39.939Z,101623.05
2018-10-11T00:09:51.873Z,101620.81
2018-10-11T00:10:03.644Z,101626.95
2018-10-11T00:10:15.408Z,101626.03
2018-10-11T00:10:27.154Z,101621.36
2018-10-11T00:10:38.908Z,101623.97
2018-10-11T00:10:50.667Z,101621.75
2018-10-11T00:11:02.431Z,101621.91
2018-10-11T00:11:14.195Z,101629.34
2018-10-11T00:11:25.960Z,101619.14
2018-10-11T00:11:37.720Z,101623.05
2018-10-11T00:11:49.488Z,101627.33
2018-10-11T00:12:01.267Z,101622.12
2018-10-11T00:12:13.052Z,101619.52
2018-10-11T00:12:24.978Z,101620.44
2018-10-11T00:12:36.964Z,101620.81
2018-10-11T00:12:48.718Z,101619.89
2018-10-11T00:13:00.476Z,101620.44
2018-10-11T00:13:12.235Z,101617.84
2018-10-11T00:13:23.995Z,101619.52
2018-10-11T00:13:35.763Z,101622.67
2018-10-11T00:13:47.517Z,101620.44
2018-10-11T00:13:59.276Z,101618.59
2018-10-11T00:14:11.016Z,101623.59
2018-10-11T00:14:22.771Z,101619.52
2018-10-11T00:14:34.540Z,101618.76
2018-10-11T00:14:46.394Z,101623.42
2018-10-11T00:14:58.135Z,101617.29
2018-10-11T00:15:09.884Z,101620.66
2018-10-11T00:15:21.644Z,101616.37
2018-10-11T00:15:33.386Z,101618.59
2018-10-11T00:15:45.144Z,101616.37
2018-10-11T00:15:56.904Z,101613.92
2018-10-11T00:16:08.667Z,101615.61
2018-10-11T00:16:20.425Z,101622.12
2018-10-11T00:16:32.181Z,101622.88
2018-10-11T00:16:43.949Z,101616.91
2018-10-11T00:16:55.701Z,101615.23
2018-10-11T00:17:07.484Z,101619.14
2018-10-11T00:17:19.253Z,101619.14
2018-10-11T00:17:31.002Z,101616.53
2018-10-11T00:17:42.758Z,101613.76
2018-10-11T00:17:54.528Z,101618.59
2018-10-11T00:18:06.271Z,101614.69
2018-10-11T00:18:18.010Z,101616.91
2018-10-11T00:18:29.767Z,101617.29
2018-10-11T00:18:41.576Z,101621.20
2018-10-11T00:18:53.320Z,101622.50
2018-10-11T00:19:05.101Z,101619.73
2018-10-11T00:19:16.847Z,101617.67
2018-10-11T00:19:28.614Z,101620.66
2018-10-11T00:19:40.360Z,101616.37
2018-10-11T00:19:52.168Z,101619.89
2018-10-11T00:20:03.943Z,101614.14
2018-10-11T00:20:15.705Z,101618.22
2018-10-11T00:20:27.447Z,101615.45
2018-10-11T00:20:39.215Z,101614.69
2018-10-11T00:20:50.971Z,101612.08
2018-10-11T00:21:02.734Z,101613.76
2018-10-11T00:21:14.493Z,101604.09
2018-10-11T00:21:26.248Z,101610.78
2018-10-11T00:21:38.665Z,101611.16
2018-10-11T00:21:50.437Z,101607.25
2018-10-11T00:22:02.196Z,101610.23
2018-10-11T00:22:13.974Z,101614.69
2018-10-11T00:22:25.851Z,101612.08
2018-10-11T00:22:37.612Z,101612.08
2018-10-11T00:22:49.362Z,101614.69
2018-10-11T00:23:01.122Z,101606.48
2018-10-11T00:23:12.873Z,101610.78
2018-10-11T00:23:24.617Z,101607.25
2018-10-11T00:23:36.715Z,101602.41
2018-10-11T00:23:48.469Z,101611.53
2018-10-11T00:24:00.211Z,101602.41
2018-10-11T00:24:11.973Z,101610.78
2018-10-11T00:24:23.729Z,101608.93
2018-10-11T00:24:35.485Z,101608.93
2018-10-11T00:24:47.248Z,101609.47
2018-10-11T00:24:59.008Z,101613.76
2018-10-11T00:25:10.763Z,101605.56
2018-10-11T00:25:22.703Z,101605.02
2018-10-11T00:25:34.450Z,101611.16
2018-10-11T00:25:46.190Z,101611.53
2018-10-11T00:25:57.942Z,101605.02
2018-10-11T00:26:09.698Z,101612.45
2018-10-11T00:26:21.448Z,101606.32
2018-10-11T00:26:33.211Z,101608.93
2018-10-11T00:26:44.968Z,101605.40
2018-10-11T00:26:56.778Z,101604.64
2018-10-11T00:27:08.682Z,101602.03
2018-10-11T00:27:20.484Z,101606.32
2018-10-11T00:27:32.320Z,101604.64
2018-10-11T00:27:44.080Z,101602.41
2018-10-11T00:27:55.822Z,101599.42
2018-10-11T00:28:07.578Z,101607.25
2018-10-11T00:28:19.333Z,101602.41
2018-10-11T00:28:31.086Z,101600.19
2018-10-11T00:28:42.838Z,101600.19
2018-10-11T00:28:54.613Z,101602.80
2018-10-11T00:29:06.380Z,101598.34
2018-10-11T00:29:18.160Z,101600.19
2018-10-11T00:29:29.926Z,101600.19
2018-10-11T00:29:41.689Z,101592.75
2018-10-11T00:29:53.438Z,101600.56
2018-10-11T00:30:05.187Z,101595.90
2018-10-11T00:30:16.956Z,101600.19
2018-10-11T00:30:28.760Z,101599.27
2018-10-11T00:30:40.509Z,101598.50
2018-10-11T00:30:52.333Z,101595.36
2018-10-11T00:31:04.089Z,101594.98
2018-10-11T00:31:15.825Z,101600.73
2018-10-11T00:31:27.587Z,101600.56
2018-10-11T00:31:39.347Z,101598.50
2018-10-11T00:31:51.119Z,101600.94
2018-10-11T00:32:02.900Z,101595.73
2018-10-11T00:32:14.647Z,101597.58
2018-10-11T00:32:26.571Z,101598.88
2018-10-11T00:32:38.326Z,101592.75
2018-10-11T00:32:50.093Z,101601.88
2018-10-11T00:33:01.860Z,101593.67
2018-10-11T00:33:13.621Z,101595.73
2018-10-11T00:33:25.434Z,101598.50
2018-10-11T00:33:37.193Z,101592.75
2018-10-11T00:33:49.936Z,101598.12
2018-10-11T00:34:01.689Z,101596.28
2018-10-11T00:34:13.445Z,101588.67
2018-10-11T00:34:25.206Z,101587.91
2018-10-11T00:34:36.955Z,101591.45
2018-10-11T00:34:48.726Z,101597.03
2018-10-11T00:35:00.482Z,101592.75
2018-10-11T00:35:12.231Z,101594.59
2018-10-11T00:35:23.984Z,101589.22
2018-10-11T00:35:35.732Z,101593.30
2018-10-11T00:35:47.473Z,101593.67
2018-10-11T00:35:59.218Z,101595.90
2018-10-11T00:36:10.977Z,101590.91
2018-10-11T00:36:22.745Z,101594.59
2018-10-11T00:36:34.503Z,101592.75
2018-10-11T00:36:46.245Z,101589.77
2018-10-11T00:36:58.005Z,101593.30
2018-10-11T00:37:09.770Z,101591.06
2018-10-11T00:37:21.536Z,101592.37
2018-10-11T00:37:33.330Z,101587.16
2018-10-11T00:37:45.094Z,101590.52
2018-10-11T00:37:56.864Z,101592.16
2018-10-11T00:38:08.611Z,101590.69
2018-10-11T00:38:20.394Z,101594.98
2018-10-11T00:38:32.157Z,101588.46
2018-10-11T00:38:43.927Z,101584.93
2018-10-11T00:38:55.696Z,101591.06
2018-10-11T00:39:07.864Z,101588.08
2018-10-11T00:39:19.614Z,101590.31
2018-10-11T00:39:31.371Z,101586.23
2018-10-11T00:39:43.130Z,101587.16
2018-10-11T00:39:54.915Z,101588.08
2018-10-11T00:40:06.826Z,101587.16
2018-10-11T00:40:18.595Z,101583.63
2018-10-11T00:40:30.348Z,101585.47
2018-10-11T00:40:42.728Z,101590.69
2018-10-11T00:40:54.492Z,101582.87
2018-10-11T00:41:06.254Z,101586.78
2018-10-11T00:41:17.995Z,101587.70
2018-10-11T00:41:29.749Z,101586.78
2018-10-11T00:41:41.568Z,101583.25
2018-10-11T00:41:53.322Z,101589.38
2018-10-11T00:42:05.096Z,101583.25
2018-10-11T00:42:16.868Z,101581.02
2018-10-11T00:42:28.646Z,101591.06
2018-10-11T00:42:40.562Z,101588.84
2018-10-11T00:42:52.321Z,101588.46
2018-10-11T00:43:04.098Z,101584.55
2018-10-11T00:43:15.857Z,101586.02
2018-10-11T00:43:27.613Z,101585.85
2018-10-11T00:43:39.372Z,101587.70
2018-10-11T00:43:51.134Z,101585.85
2018-10-11T00:44:02.912Z,101581.56
2018-10-11T00:44:16.323Z,101584.55
2018-10-11T00:44:28.070Z,101590.69
2018-10-11T00:44:39.832Z,101584.93
2018-10-11T00:44:51.584Z,101584.01
2018-10-11T00:45:03.356Z,101584.93
2018-10-11T00:45:15.120Z,101580.64
2018-10-11T00:45:26.867Z,101584.55
2018-10-11T00:45:38.626Z,101583.63
2018-10-11T00:45:50.384Z,101581.02
2018-10-11T00:46:02.143Z,101590.69
2018-10-11T00:46:13.889Z,101581.02
2018-10-11T00:46:25.642Z,101581.56
2018-10-11T00:46:37.395Z,101587.53
2018-10-11T00:46:49.152Z,101584.93
2018-10-11T00:47:00.928Z,101580.64
2018-10-11T00:47:12.684Z,101586.40
2018-10-11T00:47:24.439Z,101579.72
2018-10-11T00:47:36.217Z,101584.55
2018-10-11T00:47:47.994Z,101583.63
2018-10-11T00:47:59.741Z,101579.34
2018-10-11T00:48:11.496Z,101584.01
2018-10-11T00:48:23.255Z,101581.41
2018-10-11T00:48:35.006Z,101587.53
2018-10-11T00:48:46.773Z,101575.43
2018-10-11T00:48:58.515Z,101584.01
2018-10-11T00:49:10.264Z,101579.72
2018-10-11T00:49:22.079Z,101581.41
2018-10-11T00:49:33.885Z,101578.03
2018-10-11T00:49:45.599Z,101579.72
2018-10-11T00:49:57.388Z,101575.81
2018-10-11T00:50:09.128Z,101578.80
2018-10-11T00:50:20.893Z,101575.27
2018-10-11T00:50:32.653Z,101577.88
2018-10-11T00:50:44.420Z,101577.88
2018-10-11T00:50:56.189Z,101574.89
2018-10-11T00:51:07.931Z,101575.81
2018-10-11T00:51:19.683Z,101572.28
2018-10-11T00:51:31.426Z,101571.90
2018-10-11T00:51:43.191Z,101576.73
2018-10-11T00:51:54.948Z,101574.12
2018-10-11T00:52:06.704Z,101577.11
2018-10-11T00:52:18.445Z,101572.28
2018-10-11T00:52:30.197Z,101575.81
2018-10-11T00:52:41.946Z,101578.80
2018-10-11T00:52:53.737Z,101578.80
2018-10-11T00:53:05.517Z,101579.17
2018-10-11T00:53:17.277Z,101574.51
2018-10-11T00:53:29.018Z,101576.57
2018-10-11T00:53:40.777Z,101577.49
2018-10-11T00:53:52.546Z,101572.83
2018-10-11T00:54:04.299Z,101582.87
2018-10-11T00:54:16.056Z,101571.36
2018-10-11T00:54:27.813Z,101573.20
2018-10-11T00:54:39.568Z,101573.58
2018-10-11T00:54:51.326Z,101570.98
2018-10-11T00:55:03.070Z,101577.11
2018-10-11T00:55:14.814Z,101573.58
2018-10-11T00:55:26.554Z,101577.49
2018-10-11T00:55:38.313Z,101570.44
2018-10-11T00:55:50.061Z,101573.58
2018-10-11T00:56:01.820Z,101573.20
2018-10-11T00:56:13.583Z,101575.27
2018-10-11T00:56:25.344Z,101572.66
2018-10-11T00:56:37.097Z,101575.27
2018-10-11T00:56:48.856Z,101573.97
2018-10-11T00:57:00.630Z,101571.90
2018-10-11T00:57:12.396Z,101570.98
2018-10-11T00:57:24.167Z,101575.81
2018-10-11T00:57:35.924Z,101573.20
2018-10-11T00:57:48.540Z,101569.30
2018-10-11T00:58:00.328Z,101574.89
2018-10-11T00:58:12.091Z,101572.83
2018-10-11T00:58:23.838Z,101570.98
2018-10-11T00:58:35.616Z,101565.39
2018-10-11T00:58:47.377Z,101566.69
2018-10-11T00:58:59.136Z,101569.84
2018-10-11T00:59:11.667Z,101571.90
2018-10-11T00:59:23.424Z,101572.83
2018-10-11T00:59:35.190Z,101567.61
2018-10-11T00:59:46.953Z,101570.05
2018-10-11T00:59:58.716Z,101565.77
2018-10-11T01:00:10.488Z,101567.45
2018-10-11T01:00:22.286Z,101566.14
2018-10-11T01:00:34.047Z,101562.62
2018-10-11T01:00:45.806Z,101566.14
2018-10-11T01:00:57.552Z,101564.84
2018-10-11T01:01:09.295Z,101565.77
2018-10-11T01:01:21.227Z,101567.45
2018-10-11T01:01:32.967Z,101565.77
2018-10-11T01:01:44.732Z,101565.77
2018-10-11T01:01:56.504Z,101568.75
2018-10-11T01:02:08.273Z,101563.00
2018-10-11T01:02:20.032Z,101562.23
2018-10-11T01:02:31.780Z,101565.77
2018-10-11T01:02:43.527Z,101564.08
2018-10-11T01:02:55.293Z,101564.08
2018-10-11T01:03:07.072Z,101563.70
2018-10-11T01:03:18.823Z,101562.78
2018-10-11T01:03:30.574Z,101565.77
2018-10-11T01:03:42.352Z,101563.16
2018-10-11T01:03:54.107Z,101567.07
2018-10-11T01:04:05.874Z,101566.14
2018-10-11T01:04:17.619Z,101567.99
2018-10-11T01:04:29.359Z,101563.16
2018-10-11T01:04:41.122Z,101563.16
2018-10-11T01:04:52.875Z,101568.75
2018-10-11T01:05:04.635Z,101567.99
2018-10-11T01:05:16.393Z,101567.99
2018-10-11T01:05:28.150Z,101563.16
2018-10-11T01:05:39.899Z,101563.16
2018-10-11T01:05:51.663Z,101566.69
2018-10-11T01:06:03.415Z,101566.14
2018-10-11T01:06:15.173Z,101559.25
2018-10-11T01:06:26.948Z,101563.92
2018-10-11T01:06:38.706Z,101562.23
2018-10-11T01:06:50.462Z,101568.38
2018-10-11T01:07:02.228Z,101563.16
2018-10-11T01:07:14.000Z,101565.77
2018-10-11T01:07:25.757Z,101566.14
2018-10-11T01:07:37.507Z,101563.16
2018-10-11T01:07:49.246Z,101562.23
2018-10-11T01:08:00.999Z,101560.02
2018-10-11T01:08:12.795Z,101563.54
2018-10-11T01:08:24.554Z,101562.23
2018-10-11T01:08:36.308Z,101563.16
2018-10-11T01:08:48.069Z,101563.54
2018-10-11T01:08:59.824Z,101558.87
2018-10-11T01:09:12.475Z,101559.63
2018-10-11T01:09:24.281Z,101558.33
2018-10-11T01:09:36.011Z,101555.34
2018-10-11T01:09:47.811Z,101560.94
2018-10-11T01:09:59.592Z,101560.55
2018-10-11T01:10:11.321Z,101552.73
2018-10-11T01:10:24.516Z,101554.80
2018-10-11T01:10:36.267Z,101563.70
2018-10-11T01:10:48.032Z,101555.34
2018-10-11T01:10:59.808Z,101557.95
2018-10-11T01:11:11.562Z,101554.04
2018-10-11T01:11:23.321Z,101557.41
2018-10-11T01:11:35.115Z,101553.12
2018-10-11T01:11:46.859Z,101557.41
2018-10-11T01:11:58.613Z,101551.44
2018-10-11T01:12:10.412Z,101556.27
2018-10-11T01:12:22.161Z,101554.42
2018-10-11T01:12:33.934Z,101553.66
2018-10-11T01:12:45.680Z,101550.51
2018-10-11T01:12:57.559Z,101554.42
2018-10-11T01:13:09.322Z,101553.66
2018-10-11T01:13:21.112Z,101555.34
2018-10-11T01:13:33.031Z,101555.34
2018-10-11T01:13:44.781Z,101557.95
2018-10-11T01:13:56.529Z,101552.20
2018-10-11T01:14:08.822Z,101554.80
2018-10-11T01:14:20.587Z,101558.33
2018-10-11T01:14:32.363Z,101557.41
2018-10-11T01:14:44.114Z,101554.42
2018-10-11T01:14:55.874Z,101551.05
2018-10-11T01:15:07.639Z,101551.44
2018-10-11T01:15:19.390Z,101552.73
2018-10-11T01:15:31.136Z,101555.72
2018-10-11T01:15:42.887Z,101556.64
2018-10-11T01:15:54.630Z,101552.36
2018-10-11T01:16:06.387Z,101556.27
2018-10-11T01:16:18.151Z,101545.68
2018-10-11T01:16:29.905Z,101550.51
2018-10-11T01:16:41.665Z,101553.28
2018-10-11T01:16:53.423Z,101547.53
2018-10-11T01:17:05.176Z,101546.60
2018-10-11T01:17:16.918Z,101554.42
2018-10-11T01:17:28.666Z,101548.83
2018-10-11T01:17:40.583Z,101550.51
2018-10-11T01:17:52.332Z,101553.12
2018-10-11T01:18:04.082Z,101551.81
2018-10-11T01:18:15.850Z,101549.20
2018-10-11T01:18:27.627Z,101552.20
2018-10-11T01:18:39.387Z,101549.75
2018-10-11T01:18:51.144Z,101550.51
2018-10-11T01:19:02.895Z,101549.20
2018-10-11T01:19:14.669Z,101546.98
2018-10-11T01:19:26.440Z,101548.45
2018-10-11T01:19:38.196Z,101545.30
2018-10-11T01:19:49.976Z,101546.60
2018-10-11T01:20:01.740Z,101547.91
2018-10-11T01:20:13.496Z,101545.68
2018-10-11T01:20:25.294Z,101541.39
2018-10-11T01:20:37.061Z,101545.68
2018-10-11T01:20:48.820Z,101545.68
2018-10-11T01:21:00.650Z,101544.38
2018-10-11T01:21:12.419Z,101547.91
2018-10-11T01:21:24.177Z,101551.44
2018-10-11T01:21:35.936Z,101545.68
2018-10-11T01:21:47.689Z,101541.77
2018-10-11T01:21:59.453Z,101542.69
2018-10-11T01:22:11.220Z,101548.83
2018-10-11T01:22:22.959Z,101537.86
2018-10-11T01:22:34.715Z,101541.77
2018-10-11T01:22:46.468Z,101548.83
2018-10-11T01:22:58.207Z,101546.98
2018-10-11T01:23:09.963Z,101550.12
2018-10-11T01:23:21.772Z,101542.15
2018-10-11T01:23:33.549Z,101543.61
2018-10-11T01:23:45.325Z,101540.09
2018-10-11T01:23:57.170Z,101544.00
2018-10-11T01:24:09.070Z,101543.07
2018-10-11T01:24:20.827Z,101547.53
2018-10-11T01:24:32.579Z,101545.68
2018-10-11T01:24:44.338Z,101544.38
2018-10-11T01:24:56.083Z,101544.00
2018-10-11T01:25:07.844Z,101540.84
2018-10-11T01:25:19.603Z,101541.77
2018-10-11T01:25:31.360Z,101540.09
2018-10-11T01:25:43.117Z,101537.86
2018-10-11T01:25:55.166Z,101540.47
2018-10-11T01:26:06.931Z,101541.77
2018-10-11T01:26:18.698Z,101538.24
2018-10-11T01:26:30.454Z,101544.75
2018-10-11T01:26:42.211Z,101538.63
2018-10-11T01:26:53.957Z,101540.47
2018-10-11T01:27:05.701Z,101538.24
2018-10-11T01:27:17.462Z,101539.16
2018-10-11T01:27:29.218Z,101539.55
2018-10-11T01:27:40.964Z,101540.84
2018-10-11T01:27:52.711Z,101533.03
2018-10-11T01:28:04.453Z,101534.33
2018-10-11T01:28:16.215Z,101539.00
2018-10-11T01:28:28.000Z,101534.71
2018-10-11T01:28:39.777Z,101539.92
2018-10-11T01:28:51.523Z,101532.11
2018-10-11T01:29:03.464Z,101527.81
2018-10-11T01:29:15.222Z,101535.64
2018-10-11T01:29:27.005Z,101535.64
2018-10-11T01:29:38.899Z,101526.13
2018-10-11T01:29:50.650Z,101537.48
2018-10-11T01:30:02.435Z,101534.71
2018-10-11T01:30:14.216Z,101539.16
2018-10-11T01:30:26.240Z,101534.33
2018-10-11T01:30:42.249Z,101533.03
2018-10-11T01:30:59.510Z,101537.31
2018-10-11T01:31:16.850Z,101534.33
2018-10-11T01:31:28.603Z,101529.13
2018-10-11T01:31:40.347Z,101532.11
2018-10-11T01:31:52.099Z,101533.95
2018-10-11T01:32:03.868Z,101530.05
2018-10-11T01:32:15.638Z,101535.25
2018-10-11T01:32:27.395Z,101534.87
2018-10-11T01:32:39.164Z,101535.80
2018-10-11T01:32:50.904Z,101536.56
2018-10-11T01:33:02.654Z,101533.95
2018-10-11T01:33:14.408Z,101538.41
2018-10-11T01:33:26.260Z,101536.56
2018-10-11T01:33:38.139Z,101537.48
2018-10-11T01:33:50.208Z,101535.25
2018-10-11T01:34:01.950Z,101532.27
2018-10-11T01:34:13.707Z,101539.16
2018-10-11T01:34:25.489Z,101540.09
2018-10-11T01:34:37.253Z,101540.09
2018-10-11T01:34:49.025Z,101535.64
2018-10-11T01:35:00.775Z,101534.33
2018-10-11T01:35:12.519Z,101539.16
2018-10-11T01:35:24.510Z,101540.84
2018-10-11T01:35:36.281Z,101539.16
2018-10-11T01:35:48.044Z,101539.55
2018-10-11T01:35:59.804Z,101533.03
2018-10-11T01:36:11.557Z,101536.94
2018-10-11T01:36:23.317Z,101535.64
2018-10-11T01:36:35.096Z,101535.25
2018-10-11T01:36:46.837Z,101538.24
2018-10-11T01:36:58.593Z,101539.55
2018-10-11T01:37:10.354Z,101538.24
2018-10-11T01:37:22.127Z,101542.15
2018-10-11T01:37:33.886Z,101540.47
2018-10-11T01:37:45.643Z,101537.86
2018-10-11T01:37:57.421Z,101534.33
2018-10-11T01:38:09.171Z,101536.94
2018-10-11T01:38:20.927Z,101534.33
2018-10-11T01:38:32.701Z,101536.94
2018-10-11T01:38:44.489Z,101537.86
2018-10-11T01:38:56.261Z,101540.84
2018-10-11T01:39:08.016Z,101530.80
2018-10-11T01:39:19.774Z,101533.03
2018-10-11T01:39:31.530Z,101532.65
2018-10-11T01:39:43.310Z,101530.80
2018-10-11T01:39:55.119Z,101533.41
2018-10-11T01:40:06.883Z,101533.41
2018-10-11T01:40:18.652Z,101534.33
2018-10-11T01:40:30.408Z,101530.42
2018-10-11T01:40:42.181Z,101539.92
2018-10-11T01:40:53.936Z,101537.31
2018-10-11T01:41:05.697Z,101535.64
2018-10-11T01:41:17.458Z,101539.92
2018-10-11T01:41:29.222Z,101534.71
2018-10-11T01:41:40.977Z,101537.31
2018-10-11T01:41:52.736Z,101533.58
2018-10-11T01:42:04.478Z,101538.63
2018-10-11T01:42:16.245Z,101533.03
2018-10-11T01:42:27.978Z,101535.64
2018-10-11T01:42:39.737Z,101531.34
2018-10-11T01:42:51.478Z,101531.73
2018-10-11T01:43:05.542Z,101541.39
2018-10-11T01:43:17.294Z,101533.95
2018-10-11T01:43:29.055Z,101536.56
2018-10-11T01:43:40.818Z,101531.73
2018-10-11T01:43:52.763Z,101538.78
2018-10-11T01:44:04.502Z,101535.64
2018-10-11T01:44:16.264Z,101539.92
2018-10-11T01:44:28.019Z,101538.63
2018-10-11T01:44:39.926Z,101528.20
2018-10-11T01:44:51.688Z,101534.33
2018-10-11T01:45:03.443Z,101534.71
2018-10-11T01:45:15.200Z,101529.50
2018-10-11T01:45:26.944Z,101529.50
2018-10-11T01:45:38.707Z,101533.41
2018-10-11T01:45:50.460Z,101526.89
2018-10-11T01:46:02.214Z,101528.20
2018-10-11T01:46:13.973Z,101524.29
2018-10-11T01:46:25.725Z,101524.67
2018-10-11T01:46:37.483Z,101525.21
2018-10-11T01:46:49.239Z,101521.84
2018-10-11T01:47:00.988Z,101526.35
2018-10-11T01:47:12.720Z,101526.89
2018-10-11T01:47:24.466Z,101528.58
2018-10-11T01:47:36.232Z,101527.27
2018-10-11T01:47:47.978Z,101526.89
2018-10-11T01:47:59.723Z,101527.81
2018-10-11T01:48:11.480Z,101531.73
2018-10-11T01:48:23.226Z,101525.97
2018-10-11T01:48:34.975Z,101526.89
2018-10-11T01:48:46.741Z,101518.53
2018-10-11T01:48:58.517Z,101524.67
2018-10-11T01:49:10.287Z,101523.36
2018-10-11T01:49:22.046Z,101517.23
2018-10-11T01:49:33.847Z,101519.45
2018-10-11T01:49:45.619Z,101516.85
2018-10-11T01:49:57.416Z,101516.85
2018-10-11T01:50:09.172Z,101516.85
2018-10-11T01:50:20.951Z,101518.53
2018-10-11T01:50:32.707Z,101518.16
2018-10-11T01:50:44.454Z,101521.14
2018-10-11T01:50:56.202Z,101519.84
2018-10-11T01:51:08.165Z,101525.59
2018-10-11T01:51:19.929Z,101519.45
2018-10-11T01:51:31.705Z,101521.69
2018-10-11T01:51:43.465Z,101516.47
2018-10-11T01:51:55.214Z,101522.98
2018-10-11T01:52:06.973Z,101517.77
2018-10-11T01:52:18.728Z,101519.45
2018-10-11T01:52:30.470Z,101514.25
2018-10-11T01:52:42.236Z,101518.16
2018-10-11T01:52:54.422Z,101516.47
2018-10-11T01:53:06.561Z,101513.48
2018-10-11T01:53:18.333Z,101516.09
2018-10-11T01:53:30.097Z,101512.02
2018-10-11T01:53:41.864Z,101514.63
2018-10-11T01:53:53.620Z,101516.85
2018-10-11T01:54:05.393Z,101512.94
2018-10-11T01:54:17.139Z,101515.92
2018-10-11T01:54:28.898Z,101513.32
2018-10-11T01:54:40.658Z,101519.45
2018-10-11T01:54:52.415Z,101514.25
2018-10-11T01:55:04.167Z,101515.92
2018-10-11T01:55:15.924Z,101522.44
2018-10-11T01:55:28.746Z,101518.70
2018-10-11T01:55:40.494Z,101517.77
2018-10-11T01:55:52.261Z,101512.94
2018-10-11T01:56:04.035Z,101516.47
2018-10-11T01:56:15.804Z,101514.25
2018-10-11T01:56:27.939Z,101509.03
2018-10-11T01:56:39.717Z,101509.41
2018-10-11T01:56:51.484Z,101517.39
2018-10-11T01:57:03.214Z,101518.70
2018-10-11T01:57:14.983Z,101512.94
2018-10-11T01:57:26.725Z,101510.34
2018-10-11T01:57:38.470Z,101510.72
2018-10-11T01:57:50.226Z,101515.55
2018-10-11T01:58:02.007Z,101507.53
2018-10-11T01:58:13.758Z,101510.72
2018-10-11T01:58:25.513Z,101513.87
2018-10-11T01:58:37.264Z,101512.56
2018-10-11T01:58:49.034Z,101512.56
2018-10-11T01:59:00.769Z,101516.85
2018-10-11T01:59:12.543Z,101514.25
2018-10-11T01:59:24.291Z,101511.64
2018-10-11T01:59:36.040Z,101509.03
2018-10-11T01:59:47.796Z,101512.94
2018-10-11T01:59:59.548Z,101507.35
2018-10-11T02:00:11.312Z,101510.34
2018-10-11T02:00:23.255Z,101516.47
2018-10-11T02:00:35.011Z,101512.02
2018-10-11T02:00:46.777Z,101516.47
2018-10-11T02:00:58.686Z,101509.41
2018-10-11T02:01:10.461Z,101514.79
2018-10-11T02:01:22.224Z,101509.41
2018-10-11T02:01:33.964Z,101517.23
2018-10-11T02:01:45.721Z,101508.66
2018-10-11T02:01:57.483Z,101512.94
2018-10-11T02:02:09.448Z,101514.25
2018-10-11T02:02:21.211Z,101513.87
2018-10-11T02:02:32.967Z,101516.47
2018-10-11T02:02:44.721Z,101510.34
2018-10-11T02:02:57.983Z,101512.94
2018-10-11T02:03:09.743Z,101513.87
2018-10-11T02:03:21.495Z,101514.63
2018-10-11T02:03:33.233Z,101518.91
2018-10-11T02:03:44.984Z,101510.72
2018-10-11T02:03:56.764Z,101515.92
2018-10-11T02:04:08.528Z,101519.84
2018-10-11T02:04:20.307Z,101520.77
2018-10-11T02:04:32.054Z,101513.32
2018-10-11T02:04:43.808Z,101517.61
2018-10-11T02:04:55.599Z,101517.77
2018-10-11T02:05:07.353Z,101516.85
2018-10-11T02:05:19.105Z,101518.16
2018-10-11T02:05:30.858Z,101519.08
2018-10-11T02:05:42.609Z,101517.23
2018-10-11T02:05:54.372Z,101517.77
2018-10-11T02:06:06.137Z,101517.23
2018-10-11T02:06:17.902Z,101517.77
2018-10-11T02:06:29.655Z,101514.63
2018-10-11T02:06:41.405Z,101521.14
2018-10-11T02:06:53.156Z,101518.91
2018-10-11T02:07:04.916Z,101520.77
2018-10-11T02:07:16.660Z,101521.14
2018-10-11T02:07:28.411Z,101522.06
2018-10-11T02:07:40.182Z,101525.97
2018-10-11T02:07:51.967Z,101517.77
2018-10-11T02:08:03.715Z,101522.06
2018-10-11T02:08:15.488Z,101522.98
2018-10-11T02:08:27.239Z,101518.16
2018-10-11T02:08:38.996Z,101518.16
2018-10-11T02:08:50.749Z,101519.84
2018-10-11T02:09:02.520Z,101524.29
2018-10-11T02:09:14.276Z,101522.98
2018-10-11T02:09:26.123Z,101518.16
2018-10-11T02:09:37.909Z,101522.06
2018-10-11T02:09:49.615Z,101518.53
2018-10-11T02:10:01.372Z,101516.85
2018-10-11T02:10:13.156Z,101518.16
2018-10-11T02:10:25.596Z,101517.61
2018-10-11T02:10:37.363Z,101519.45
2018-10-11T02:10:49.120Z,101520.77
2018-10-11T02:11:00.872Z,101522.98
2018-10-11T02:11:12.611Z,101520.77
2018-10-11T02:11:24.371Z,101522.61
2018-10-11T02:11:36.123Z,101518.70
2018-10-11T02:11:47.878Z,101514.79
2018-10-11T02:11:59.636Z,101515.55
2018-10-11T02:12:11.402Z,101521.69
2018-10-11T02:12:23.238Z,101517.23
2018-10-11T02:12:34.983Z,101519.08
2018-10-11T02:12:46.737Z,101517.23
2018-10-11T02:12:58.992Z,101519.45
2018-10-11T02:13:10.750Z,101514.63
2018-10-11T02:13:22.507Z,101515.92
2018-10-11T02:13:34.254Z,101520.77
2018-10-11T02:13:46.023Z,101520.38
2018-10-11T02:13:57.856Z,101520.77
2018-10-11T02:14:09.595Z,101517.95
2018-10-11T02:14:21.339Z,101520.77
2018-10-11T02:14:33.121Z,101519.08
2018-10-11T02:14:44.888Z,101516.85